createdAt,value
2022-12-13T00:04:54.497Z,87.90
2022-12-13T00:09:53.503Z,87.90
2022-12-13T00:14:52.469Z,87.90
2022-12-13T00:19:52.283Z,87.80
2022-12-13T00:24:51.467Z,87.80
2022-12-13T00:29:50.295Z,87.80
2022-12-13T00:34:49.317Z,87.90
2022-12-13T00:39:48.325Z,88.00
2022-12-13T00:44:47.340Z,87.90
2022-12-13T00:49:46.357Z,87.90
2022-12-13T00:54:45.388Z,87.80
2022-12-13T00:59:44.376Z,87.80
2022-12-13T01:04:43.288Z,87.70
2022-12-13T01:09:42.527Z,87.70
2022-12-13T01:14:41.646Z,87.60
2022-12-13T01:19:40.324Z,87.40
2022-12-13T01:24:39.566Z,87.40
2022-12-13T01:29:38.274Z,87.40
2022-12-13T01:34:37.254Z,87.40
2022-12-13T01:39:38.310Z,87.40
2022-12-13T01:44:37.256Z,87.30
2022-12-13T01:49:36.643Z,87.20
2022-12-13T01:54:35.264Z,86.90
2022-12-13T01:59:34.859Z,86.60
2022-12-13T02:04:34.390Z,86.40
2022-12-13T02:09:33.375Z,86.20
2022-12-13T02:14:32.785Z,86.10
2022-12-13T02:19:31.936Z,86.00
2022-12-13T02:24:31.507Z,86.10
2022-12-13T02:29:31.504Z,86.20
2022-12-13T02:34:31.531Z,86.00
2022-12-13T02:39:32.388Z,85.80
2022-12-13T02:44:31.391Z,85.70
2022-12-13T02:49:30.408Z,85.70
2022-12-13T02:54:29.523Z,85.70
2022-12-13T02:59:28.523Z,85.80
2022-12-13T03:04:27.335Z,85.90
2022-12-13T03:09:26.549Z,86.20
2022-12-13T03:14:28.298Z,86.00
2022-12-13T03:19:26.397Z,86.10
2022-12-13T03:24:25.456Z,85.90
2022-12-13T03:29:25.109Z,85.90
2022-12-13T03:34:24.388Z,85.80
2022-12-13T03:39:23.410Z,86.00
2022-12-13T03:44:22.376Z,86.10
2022-12-13T03:49:21.293Z,86.30
2022-12-13T03:54:20.415Z,86.30
2022-12-13T03:59:19.417Z,86.30
2022-12-13T04:04:18.449Z,86.30
2022-12-13T04:09:17.582Z,86.30
2022-12-13T04:14:22.000Z,86.20
2022-12-13T04:19:23.005Z,86.10
2022-12-13T04:24:18.369Z,86.20
2022-12-13T04:29:17.384Z,86.10
2022-12-13T04:34:16.293Z,85.80
2022-12-13T04:39:22.681Z,86.20
2022-12-13T04:44:29.019Z,86.00
2022-12-13T04:49:18.413Z,85.80
2022-12-13T04:54:23.845Z,85.80
2022-12-13T04:59:18.413Z,85.70
2022-12-13T05:04:18.068Z,85.70
2022-12-13T05:09:17.462Z,85.60
2022-12-13T05:14:23.177Z,85.40
2022-12-13T05:19:17.540Z,85.40
2022-12-13T05:24:16.562Z,85.30
2022-12-13T05:29:15.544Z,85.20
2022-12-13T05:34:14.541Z,85.00
2022-12-13T05:39:28.289Z,84.80
2022-12-13T05:44:14.733Z,84.60
2022-12-13T05:49:13.433Z,84.60
2022-12-13T05:54:12.449Z,84.70
2022-12-13T05:59:11.476Z,84.60
2022-12-13T06:04:10.569Z,84.60
2022-12-13T06:09:09.470Z,84.40
2022-12-13T06:14:21.401Z,84.60
2022-12-13T06:19:09.394Z,84.70
2022-12-13T06:24:08.561Z,84.70
2022-12-13T06:29:07.473Z,84.60
2022-12-13T06:34:14.531Z,84.60
2022-12-13T06:39:07.443Z,84.80
2022-12-13T06:44:06.577Z,84.70
2022-12-13T06:49:05.927Z,84.80
2022-12-13T06:54:05.385Z,85.00
2022-12-13T06:59:04.500Z,85.00
2022-12-13T07:04:03.523Z,84.90
2022-12-13T07:09:02.545Z,84.90
2022-12-13T07:14:01.553Z,84.70
2022-12-13T07:19:01.126Z,84.70
2022-12-13T07:24:01.699Z,84.60
2022-12-13T07:29:00.749Z,84.60
2022-12-13T07:33:59.542Z,84.40
2022-12-13T07:38:58.489Z,84.60
2022-12-13T07:43:58.353Z,84.70
2022-12-13T07:49:01.590Z,84.80
2022-12-13T07:53:58.897Z,85.00
2022-12-13T07:58:57.656Z,84.90
2022-12-13T08:03:56.571Z,84.90
2022-12-13T08:08:55.833Z,84.90
2022-12-13T08:13:54.649Z,84.60
2022-12-13T08:19:02.129Z,84.60
2022-12-13T08:23:57.540Z,84.70
2022-12-13T08:28:56.636Z,84.70
2022-12-13T08:33:55.554Z,84.60
2022-12-13T08:38:54.669Z,84.50
2022-12-13T08:43:53.388Z,84.30
2022-12-13T08:48:52.628Z,84.20
2022-12-13T08:53:51.709Z,84.30
2022-12-13T08:58:52.090Z,84.30
2022-12-13T09:03:51.467Z,84.20
2022-12-13T09:08:51.716Z,84.20
2022-12-13T09:13:51.547Z,84.20
2022-12-13T09:18:55.347Z,83.90
2022-12-13T09:23:52.233Z,84.10
2022-12-13T09:28:51.649Z,82.80
2022-12-13T09:33:50.558Z,83.10
2022-12-13T09:38:49.460Z,83.00
2022-12-13T09:43:49.218Z,83.60
2022-12-13T09:48:48.912Z,83.60
2022-12-13T09:53:48.659Z,83.00
2022-12-13T09:58:50.652Z,83.40
2022-12-13T10:03:50.571Z,83.50
2022-12-13T10:08:49.678Z,83.20
2022-12-13T10:13:50.526Z,82.80
2022-12-13T10:18:49.546Z,82.40
2022-12-13T10:28:49.607Z,82.40
2022-12-13T10:33:48.660Z,82.40
2022-12-13T10:38:47.647Z,82.30
2022-12-13T10:43:46.645Z,82.30
2022-12-13T10:48:45.687Z,82.50
2022-12-13T10:53:46.952Z,82.10
2022-12-13T10:58:46.044Z,81.10
2022-12-13T11:03:44.535Z,81.30
2022-12-13T11:08:44.020Z,81.10
2022-12-13T11:13:43.599Z,80.80
2022-12-13T11:18:42.391Z,80.00
2022-12-13T11:23:41.712Z,79.80
2022-12-13T11:28:41.092Z,79.20
2022-12-13T11:33:48.064Z,78.70
2022-12-13T11:38:41.952Z,79.30
2022-12-13T11:43:40.539Z,78.50
2022-12-13T11:48:39.528Z,78.10
2022-12-13T11:53:38.530Z,77.60
2022-12-13T12:03:38.648Z,77.40
2022-12-13T12:08:37.898Z,77.50
2022-12-13T12:13:51.256Z,76.60
2022-12-13T12:18:39.613Z,76.70
2022-12-13T12:23:44.397Z,76.20
2022-12-13T12:28:44.104Z,76.80
2022-12-13T12:33:40.663Z,77.00
2022-12-13T12:38:39.568Z,77.40
2022-12-13T12:43:38.493Z,76.90
2022-12-13T12:53:39.579Z,76.60
2022-12-13T12:58:38.635Z,75.10
2022-12-13T13:03:37.679Z,72.40
2022-12-13T13:08:37.393Z,74.50
2022-12-13T13:13:37.014Z,74.60
2022-12-13T13:18:37.719Z,74.60
2022-12-13T13:23:40.969Z,74.50
2022-12-13T13:28:37.503Z,73.40
2022-12-13T13:33:37.520Z,72.50
2022-12-13T13:38:36.737Z,71.60
2022-12-13T13:43:35.791Z,72.90
2022-12-13T13:48:36.760Z,73.40
2022-12-13T13:53:35.676Z,73.10
2022-12-13T13:58:34.748Z,72.90
2022-12-13T14:03:35.142Z,73.50
2022-12-13T14:08:35.250Z,73.20
2022-12-13T14:13:37.606Z,73.30
2022-12-13T14:18:35.656Z,73.00
2022-12-13T14:23:35.307Z,73.30
2022-12-13T14:28:34.693Z,73.50
2022-12-13T14:33:34.280Z,73.50
2022-12-13T14:38:33.657Z,73.20
2022-12-13T14:43:32.746Z,73.50
2022-12-13T14:48:31.814Z,73.50
2022-12-13T14:53:30.872Z,73.10
2022-12-13T14:58:29.576Z,73.70
2022-12-13T15:03:29.324Z,73.90
2022-12-13T15:08:28.647Z,73.80
2022-12-13T15:13:29.012Z,74.00
2022-12-13T15:18:31.383Z,74.00
2022-12-13T15:23:32.688Z,74.10
2022-12-13T15:28:31.733Z,74.30
2022-12-13T15:33:35.258Z,74.30
2022-12-13T15:38:31.701Z,74.30
2022-12-13T15:43:30.844Z,74.60
2022-12-13T15:48:30.642Z,74.80
2022-12-13T15:53:30.114Z,74.90
2022-12-13T15:58:29.617Z,74.80
2022-12-13T16:03:29.016Z,74.90
2022-12-13T16:08:28.947Z,74.90
2022-12-13T16:13:27.871Z,75.10
2022-12-13T16:18:27.264Z,74.90
2022-12-13T16:23:27.785Z,74.90
2022-12-13T16:28:26.741Z,74.80
2022-12-13T16:33:29.538Z,74.80
2022-12-13T16:38:29.680Z,74.70
2022-12-13T16:43:34.396Z,74.30
2022-12-13T16:48:32.886Z,74.40
2022-12-13T16:53:32.798Z,74.30
2022-12-13T16:58:31.735Z,74.50
2022-12-13T17:03:30.901Z,74.40
2022-12-13T17:08:30.510Z,74.50
2022-12-13T17:13:29.995Z,73.80
2022-12-13T17:18:29.212Z,74.10
2022-12-13T17:23:28.199Z,74.20
2022-12-13T17:28:27.846Z,73.80
2022-12-13T17:33:27.255Z,73.90
2022-12-13T17:38:27.316Z,74.00
2022-12-13T17:43:34.241Z,74.00
2022-12-13T17:48:33.995Z,73.70
2022-12-13T17:53:30.834Z,73.50
2022-12-13T17:58:31.632Z,73.60
2022-12-13T18:03:30.799Z,73.70
2022-12-13T18:08:29.769Z,73.70
2022-12-13T18:13:28.963Z,72.90
2022-12-13T18:18:27.733Z,73.40
2022-12-13T18:23:27.059Z,73.10
2022-12-13T18:28:26.954Z,73.10
2022-12-13T18:33:26.105Z,73.30
2022-12-13T18:38:30.428Z,73.00
2022-12-13T18:43:26.656Z,72.80
2022-12-13T18:48:26.492Z,72.30
2022-12-13T18:53:26.037Z,72.60
2022-12-13T18:58:25.743Z,72.80
2022-12-13T19:03:25.467Z,72.30
2022-12-13T19:08:25.888Z,71.70
2022-12-13T19:13:25.125Z,72.00
2022-12-13T19:18:25.048Z,71.70
2022-12-13T19:23:24.208Z,71.80
2022-12-13T19:28:23.723Z,71.50
2022-12-13T19:33:22.921Z,71.30
2022-12-13T19:38:21.746Z,71.50
2022-12-13T19:43:20.898Z,71.60
2022-12-13T19:48:19.754Z,71.50
2022-12-13T19:53:18.752Z,71.20
2022-12-13T19:58:17.786Z,71.10
2022-12-13T20:03:17.667Z,70.90
2022-12-13T20:08:17.536Z,70.90
2022-12-13T20:13:16.865Z,70.50
2022-12-13T20:18:15.703Z,69.70
2022-12-13T20:23:14.863Z,69.30
2022-12-13T20:28:16.356Z,69.10
2022-12-13T20:33:14.787Z,69.20
2022-12-13T20:38:13.760Z,69.10
2022-12-13T20:43:12.774Z,69.40
2022-12-13T20:48:11.799Z,68.80
2022-12-13T20:53:10.905Z,68.70
2022-12-13T20:58:10.172Z,68.80
2022-12-13T21:03:08.927Z,68.60
2022-12-13T21:08:25.800Z,68.90
2022-12-13T21:13:25.347Z,68.70
2022-12-13T21:18:24.739Z,68.30
2022-12-13T21:23:24.189Z,68.30
2022-12-13T21:28:24.404Z,68.00
2022-12-13T21:33:24.059Z,68.00
2022-12-13T21:38:23.938Z,67.90
2022-12-13T21:43:24.968Z,67.70
2022-12-13T21:48:26.753Z,66.80
2022-12-13T21:53:26.339Z,66.90
2022-12-13T21:58:44.063Z,66.10
2022-12-13T22:03:42.827Z,65.90
2022-12-13T22:08:41.846Z,65.70
2022-12-13T22:13:40.890Z,64.60
2022-12-13T22:18:39.873Z,65.50
2022-12-13T22:23:38.878Z,65.10
2022-12-13T22:28:37.808Z,65.60
2022-12-13T22:33:36.796Z,65.40
2022-12-13T22:38:35.951Z,65.20
2022-12-13T22:43:35.130Z,65.30
2022-12-13T22:48:33.944Z,64.70
2022-12-13T22:53:33.140Z,64.50
2022-12-13T22:58:32.096Z,64.70
2022-12-13T23:03:30.904Z,64.40
2022-12-13T23:08:29.948Z,64.70
2022-12-13T23:13:29.091Z,64.50
2022-12-13T23:18:28.027Z,64.70
2022-12-13T23:23:27.851Z,64.00
2022-12-13T23:28:27.171Z,63.90
2022-12-13T23:33:28.969Z,63.80
2022-12-13T23:38:30.809Z,63.80
2022-12-13T23:43:30.379Z,64.10
2022-12-13T23:48:29.150Z,64.10
2022-12-13T23:53:28.851Z,64.00
2022-12-13T23:58:31.130Z,64.00
